• Join FlightAware (Why Join?)
  • Login
  • US Flag 
01:12AM EST


 

Airport Tracker/Info


-or-


 

Live Flight TrackerFlight Track Log ✈ EJA982 ✈ 24-Jun-2013 ✈ KAPC - KMMU

Flight Track Log - Related Links

Times and Time Zones

All times are in EDT time to prevent confusion due to time zone crossing. See the EJA982 flight status page for this flight to view local times or setup timezone preferences in your user account.

Time Position Orientation Groundspeed Altitude Reporting Facility
EDT Latitude Longitude Course Direction KTS MPH feet Rate Location/Type
04:03PM 38.1917 -122.2958 65° Northeast 191 220 1,200  Level Oakland Center
04:04PM 38.1967 -122.3556 276° West 222 255 3,700 1,320 Climbing Oakland Center
04:05PM 38.2572 -122.4031 328° Northwest 276 318 4,000 1,560 Climbing Oakland Center
04:06PM 38.3342 -122.4053 359° North 277 319 7,000 2,340 Climbing Oakland Center
04:07PM 38.7062 -121.8240 61° Northeast  Level FlightAware Approximate
04:07PM 38.4100 -122.3950 North 275 316 8,800  Level Oakland Center
04:08PM 38.7631 -121.6642 65° Northeast  Level FlightAware Approximate
04:08PM 38.4922 -122.3728 12° North 310 357 10,700  Level Oakland Center
04:09PM 38.5422 -122.2614 60° Northeast 365 420 12,300 1,560 Climbing Oakland Center
04:10PM 38.5922 -122.1378 63° Northeast 388 447 13,900 1,800 Climbing Oakland Center
04:11PM 38.6531 -121.9814 63° Northeast 406 467 16,000 1,800 Climbing Oakland Center
04:12PM 38.7008 -121.8558 64° Northeast 416 479 17,600 1,200 Climbing Oakland Center
04:14PM 38.7944 -121.6225 61° Northeast  Level FlightAware Approximate
04:14PM 38.8158 -121.5767 61° Northeast 441 507 19,800  Level Oakland Center
04:15PM 38.8800 -121.4375 59° Northeast 446 513 21,200 1,500 Climbing Oakland Center
04:16PM 38.9422 -121.3000 60° Northeast 442 509 22,900 1,560 Climbing Oakland Center
04:17PM 39.0058 -121.1600 60° Northeast 446 513 24,400 1,380 Climbing Oakland Center
04:18PM 39.0706 -121.0142 60° Northeast 461 531 25,800 1,380 Climbing Oakland Center
04:19PM 39.1367 -120.8675 60° Northeast 468 539 27,300 1,560 Climbing Oakland Center
04:20PM 39.2161 -120.6886 60° Northeast 476 548 29,100 1,560 Climbing Oakland Center
04:21PM 39.2842 -120.5367 60° Northeast 484 557 30,500 1,380 Climbing Oakland Center
04:22PM 39.3517 -120.3828 60° Northeast 491 565 32,000 1,320 Climbing Oakland Center
04:23PM 39.4197 -120.2269 60° Northeast 497 572 33,200 1,080 Climbing Oakland Center
04:24PM 39.4925 -120.0678 59° Northeast 517 595 34,300 900 Climbing Oakland Center
04:25PM 39.5647 -119.9036 60° Northeast 523 602 35,100 600 Climbing Oakland Center
04:26PM 39.6386 -119.7314 61° Northeast 539 620 35,600 600 Climbing Oakland Center
04:27PM 39.7131 -119.5561 61° Northeast 549 632 36,400 660 Climbing Oakland Center
04:28PM 39.7883 -119.3794 61° Northeast 555 639 37,000 480 Climbing Oakland Center
04:29PM 39.8644 -119.1989 61° Northeast 563 648 37,400 660 Climbing Oakland Center
04:30PM 39.9403 -119.0192 61° Northeast 561 646 38,400 960 Climbing Oakland Center
04:31PM 40.0136 -118.8428 61° Northeast 553 636 39,400 1,080 Climbing Oakland Center
04:32PM 40.1008 -118.6375 61° Northeast 537 618 40,600 780 Climbing Oakland Center
04:33PM 40.1597 -118.4589 67° East 534 615 41,000 180 Climbing Oakland Center
04:34PM 40.2089 -118.2728 71° East 538 619 41,000  Level Oakland Center
04:36PM 40.2708 -118.0872 66° East 552 635 41,000  Level Oakland Center
04:37PM 40.3394 -117.9178 62° Northeast 558 642 41,000  Level Oakland Center
04:38PM 40.4208 -117.7167 62° Northeast 558 642 41,000  Level Oakland Center
04:39PM 40.4906 -117.5422 62° Northeast 561 646 41,000  Level Oakland Center
04:40PM 40.5594 -117.3669 63° Northeast 561 646 41,000  Level Oakland Center
04:41PM 40.6417 -117.1614 62° Northeast 562 647 41,000  Level Oakland Center
04:42PM 40.7333 -116.9236 63° Northeast 562 647 41,000  Level Salt Lake Center
04:43PM 40.8017 -116.7467 63° Northeast 561 646 41,000  Level Salt Lake Center
04:44PM 40.8683 -116.5725 63° Northeast 554 638 41,000  Level Salt Lake Center
04:45PM 40.9456 -116.3742 63° Northeast 543 625 41,000  Level Salt Lake Center
04:46PM 41.0094 -116.2056 63° Northeast 536 617 41,000  Level Salt Lake Center
04:47PM 41.0728 -116.0361 64° Northeast 537 618 41,000  Level Salt Lake Center
04:48PM 41.1469 -115.8394 63° Northeast 535 616 41,000  Level Salt Lake Center
04:49PM 41.2106 -115.6689 64° Northeast 535 616 41,000  Level Salt Lake Center
04:50PM 41.2833 -115.4703 64° Northeast 535 616 41,000  Level Salt Lake Center
04:51PM 41.3481 -115.2967 64° Northeast 543 625 41,000  Level Salt Lake Center
04:52PM 41.4428 -115.1072 56° Northeast 552 635 41,000  Level Salt Lake Center
04:53PM 41.5369 -114.9589 50° Northeast 550 633 41,000  Level Salt Lake Center
04:54PM 41.6286 -114.8100 50° Northeast 543 625 41,000  Level Salt Lake Center
04:55PM 41.7356 -114.6386 50° Northeast 539 620 41,000  Level Salt Lake Center
04:56PM 41.8347 -114.4764 51° Northeast 538 619 41,000  Level Salt Lake Center
04:57PM 41.9314 -114.3197 50° Northeast 544 626 41,000  Level Salt Lake Center
04:58PM 42.0283 -114.1617 50° Northeast 548 631 41,000  Level Salt Lake Center
04:59PM 42.1242 -114.0022 51° Northeast 548 631 41,000  Level Salt Lake Center
05:00PM 42.2211 -113.8417 51° Northeast 551 634 41,000  Level Salt Lake Center
05:01PM 42.3164 -113.6825 51° Northeast 547 629 41,000  Level Salt Lake Center
05:02PM 42.4325 -113.4897 51° Northeast 551 634 41,000  Level Salt Lake Center
05:03PM 42.5250 -113.3292 52° Northeast 545 627 41,000 300 Level Salt Lake Center
05:05PM 42.6178 -113.1750 51° Northeast 532 612 41,700 660 Climbing Salt Lake Center
05:06PM 42.7108 -113.0169 51° Northeast 531 611 42,400 600 Climbing Salt Lake Center
05:07PM 42.7986 -112.8689 51° Northeast 527 606 43,000 240 Climbing Salt Lake Center
05:08PM 42.8997 -112.6933 52° Northeast 528 608 43,000  Level Salt Lake Center
05:09PM 42.9881 -112.5394 52° Northeast 536 617 43,000  Level Salt Lake Center
05:10PM 43.0919 -112.3594 52° Northeast 540 621 43,000  Level Salt Lake Center
05:11PM 43.1786 -112.2067 52° Northeast 535 616 43,000  Level Salt Lake Center
05:12PM 43.2781 -112.0311 52° Northeast 525 604 43,000  Level Salt Lake Center
05:13PM 43.3636 -111.8831 51° Northeast 520 598 43,000  Level Salt Lake Center
05:14PM 43.4467 -111.7322 53° Northeast 519 597 43,000  Level Salt Lake Center
05:15PM 43.5433 -111.5611 52° Northeast 511 588 43,000  Level Salt Lake Center
05:16PM 43.6250 -111.4139 53° Northeast 507 583 43,000  Level Salt Lake Center
05:17PM 43.7197 -111.2433 52° Northeast 505 581 43,000  Level Salt Lake Center
05:18PM 43.7994 -111.0975 53° Northeast 502 578 43,000  Level Salt Lake Center
05:19PM 43.8967 -110.9203 53° Northeast 515 593 43,000  Level Salt Lake Center
05:20PM 43.9797 -110.7675 53° Northeast 520 598 43,000  Level Salt Lake Center
05:21PM 44.0761 -110.5875 53° Northeast 523 602 43,000  Level Salt Lake Center
05:22PM 44.1608 -110.4306 53° Northeast 529 609 43,000  Level Salt Lake Center
05:23PM 44.2594 -110.2483 53° Northeast 530 610 43,000  Level Salt Lake Center
05:24PM 44.3422 -110.0900 54° Northeast 529 609 43,000  Level Salt Lake Center
05:25PM 44.4400 -109.9064 53° Northeast 528 608 43,000  Level Salt Lake Center
05:26PM 44.5222 -109.7483 54° Northeast 526 605 43,000  Level Salt Lake Center
05:27PM 44.6047 -109.5894 54° Northeast 527 606 43,000  Level Salt Lake Center
05:28PM 44.7008 -109.4036 54° Northeast 527 606 43,000  Level Salt Lake Center
05:29PM 44.7839 -109.2422 54° Northeast 531 611 43,000  Level Salt Lake Center
05:30PM 44.8806 -109.0544 54° Northeast 531 611 43,000  Level Salt Lake Center
05:31PM 44.9628 -108.8944 54° Northeast 528 608 43,000  Level Salt Lake Center
05:32PM 45.0564 -108.7083 55° Northeast 522 601 43,000  Level Salt Lake Center
05:33PM 45.1456 -108.5325 54° Northeast 517 595 43,000  Level Salt Lake Center
05:34PM 45.2267 -108.3689 55° Northeast 519 597 43,000  Level Salt Lake Center
05:35PM 45.3147 -108.1908 55° Northeast 517 595 43,000  Level Salt Lake Center
05:36PM 45.3964 -108.0269 55° Northeast 516 594 43,000  Level Salt Lake Center
05:37PM 45.4847 -107.8469 55° Northeast 517 595 43,000  Level Salt Lake Center
05:39PM 45.5664 -107.6781 55° Northeast 522 601 43,000  Level Salt Lake Center
05:40PM 45.6542 -107.4986 55° Northeast 517 595 43,000  Level Salt Lake Center
05:41PM 45.7344 -107.3319 55° Northeast 516 594 43,000  Level Salt Lake Center
05:42PM 45.8178 -107.1578 55° Northeast 513 590 43,000  Level Salt Lake Center
05:43PM 45.8944 -106.9931 56° Northeast 514 592 43,000  Level Salt Lake Center
05:44PM 45.9717 -106.8222 57° Northeast 513 590 43,000  Level Salt Lake Center
05:45PM 46.0503 -106.6542 56° Northeast 511 588 43,000  Level Salt Lake Center
05:47PM 46.2239 -106.2881 55° Northeast 506 582 43,000  Level Salt Lake Center
05:48PM 46.3028 -106.1203 56° Northeast 506 582 43,000  Level Salt Lake Center
05:49PM 46.3800 -105.9469 57° Northeast 509 586 43,000  Level Salt Lake Center
05:50PM 46.4150 -105.7453 76° East 517 595 43,000  Level Salt Lake Center
05:51PM 46.4469 -105.5411 77° East 521 600 43,000  Level Salt Lake Center
05:52PM 46.4803 -105.3392 76° East 520 598 43,000  Level Salt Lake Center
05:53PM 46.5194 -105.0961 77° East 519 597 43,000  Level Salt Lake Center
05:54PM 46.5514 -104.8911 77° East 519 597 43,000  Level Salt Lake Center
05:55PM 46.5831 -104.6858 77° East 521 600 43,000  Level Salt Lake Center
05:56PM 46.6147 -104.4814 77° East 522 601 43,000  Level Salt Lake Center
05:57PM 46.6450 -104.2744 78° East 523 602 43,000  Level Salt Lake Center
05:58PM 46.6817 -104.0272 78° East 524 603 43,000  Level Salt Lake Center
05:59PM 46.7125 -103.8206 78° East 525 604 43,000  Level Salt Lake Center
06:00PM 46.7422 -103.6139 78° East 525 604 43,000  Level Salt Lake Center
06:01PM 46.7719 -103.4089 78° East 524 603 43,000  Level Salt Lake Center
06:02PM 46.7908 -103.2900 77° East 519 597 43,000  Level Minneapolis Center
06:03PM 46.8247 -103.0439 79° East 519 597 43,000  Level Minneapolis Center
06:04PM 46.8528 -102.8375 79° East 522 601 43,000  Level Minneapolis Center
06:05PM 46.8661 -102.6244 85° East 529 609 43,000  Level Minneapolis Center
06:06PM 46.8642 -102.4178 91° East 520 598 43,000  Level Minneapolis Center
06:07PM 46.8661 -102.2089 89° East 518 596 43,000  Level Minneapolis Center
06:08PM 46.8667 -102.0000 90° East 518 596 43,000  Level Minneapolis Center
06:09PM 46.8656 -101.8336 90° East 516 594 43,000  Level Minneapolis Center
06:10PM 46.8644 -101.5672 90° East 515 593 43,000  Level Minneapolis Center
06:11PM 46.8631 -101.4006 91° East 514 592 43,000  Level Minneapolis Center
06:12PM 46.8619 -101.1089 90° East 513 590 43,000  Level Minneapolis Center
06:13PM 46.8603 -100.8994 91° East 514 592 43,000  Level Minneapolis Center
06:14PM 46.8592 -100.6878 90° East 518 596 43,000  Level Minneapolis Center
06:15PM 46.8564 -100.5036 91° East 516 594 43,000  Level Minneapolis Center
06:16PM 46.8522 -100.2542 91° East 514 592 43,000  Level Minneapolis Center
06:17PM 46.8497 -100.0456 91° East 516 594 43,000  Level Minneapolis Center
06:18PM 46.8456 -99.8369 92° East 516 594 43,000  Level Minneapolis Center
06:19PM 46.8417 -99.6278 91° East 516 594 43,000  Level Minneapolis Center
06:20PM 46.8369 -99.4178 92° East 520 598 43,000  Level Minneapolis Center
06:21PM 46.8336 -99.2508 92° East 518 596 43,000  Level Minneapolis Center
06:22PM 46.8267 -98.9583 92° East 518 596 43,000  Level Minneapolis Center
06:23PM 46.8211 -98.7489 92° East 520 598 43,000  Level Minneapolis Center
06:25PM 46.8144 -98.5403 93° East 519 597 43,000  Level Minneapolis Center
06:26PM 46.8086 -98.3311 92° East 519 597 43,000  Level Minneapolis Center
06:27PM 46.8022 -98.1206 92° East 520 598 43,000  Level Minneapolis Center
06:28PM 46.7958 -97.9092 92° East 525 604 43,000  Level Minneapolis Center
06:29PM 46.7864 -97.6592 93° East 521 600 43,000  Level Minneapolis Center
06:30PM 46.7781 -97.4506 93° East 521 600 43,000  Level Minneapolis Center
06:31PM 46.7703 -97.2386 93° East 524 603 43,000  Level Minneapolis Center
06:32PM 46.7608 -97.0278 94° East 525 604 43,000  Level Minneapolis Center
06:33PM 46.7533 -96.8189 93° East 522 601 43,000  Level Minneapolis Center
06:34PM 46.7611 -96.5636 87° East 527 606 43,000  Level Minneapolis Center
06:35PM 46.7669 -96.3531 88° East 524 603 43,000  Level Minneapolis Center
06:36PM 46.7728 -96.1419 88° East 524 603 43,000  Level Minneapolis Center
06:37PM 46.7781 -95.9325 88° East 520 598 43,000  Level Minneapolis Center
06:38PM 46.7833 -95.7086 88° East 512 589 43,000  Level Minneapolis Center
06:39PM 46.7864 -95.5028 89° East 510 587 43,000  Level Minneapolis Center
06:40PM 46.7908 -95.2978 88° East 509 586 43,000  Level Minneapolis Center
06:41PM 46.7944 -95.0939 88° East 506 582 43,000  Level Minneapolis Center
06:42PM 46.7975 -94.8892 89° East 507 583 43,000  Level Minneapolis Center
06:43PM 46.8006 -94.6467 89° East 503 579 43,000  Level Minneapolis Center
06:44PM 46.8019 -94.4411 89° East 506 582 43,000  Level Minneapolis Center
06:45PM 46.8036 -94.2364 89° East 508 585 43,000  Level Minneapolis Center
06:46PM 46.8044 -94.0297 90° East 512 589 43,000  Level Minneapolis Center
06:47PM 46.8058 -93.8231 89° East 512 589 43,000  Level Minneapolis Center
06:48PM 46.8072 -93.6164 89° East 514 592 43,000  Level Minneapolis Center
06:49PM 46.8069 -93.4108 90° East 512 589 43,000  Level Minneapolis Center
06:50PM 46.8058 -93.1622 90° East 516 594 43,000  Level Minneapolis Center
06:51PM 46.8058 -92.9508 90° East 523 602 43,000  Level Minneapolis Center
06:53PM 46.8053 -92.7428 90° East 522 601 43,000  Level Minneapolis Center
06:54PM 46.8039 -92.4936 90° East 518 596 43,000  Level Minneapolis Center
06:55PM 46.8017 -92.2458 91° East 514 592 43,000  Level Minneapolis Center
06:56PM 46.7981 -91.9944 91° East 518 596 43,000  Level Minneapolis Center
06:57PM 46.7925 -91.7906 92° East 512 589 43,000  Level Minneapolis Center
06:58PM 46.7886 -91.5794 91° East 519 597 43,000  Level Minneapolis Center
06:59PM 46.7856 -91.3694 91° East 521 600 43,000  Level Minneapolis Center
07:00PM 46.7811 -91.1394 92° East 521 600 43,000  Level Minneapolis Center
07:01PM 46.7753 -90.9286 92° East 521 600 43,000  Level Minneapolis Center
07:02PM 46.7694 -90.6744 92° East 522 601 43,000  Level Minneapolis Center
07:03PM 46.7639 -90.4614 92° East 524 603 43,000  Level Minneapolis Center
07:04PM 46.7572 -90.2481 93° East 525 604 43,000  Level Minneapolis Center
07:05PM 46.7497 -90.0342 93° East 526 605 43,000  Level Minneapolis Center
07:06PM 46.7436 -89.8200 92° East 527 606 43,000  Level Minneapolis Center
07:07PM 46.7350 -89.6064 93° East 525 604 43,000  Level Minneapolis Center
07:08PM 46.7275 -89.3917 93° East 526 605 43,000  Level Minneapolis Center
07:09PM 46.7156 -89.1356 94° East 524 603 43,000  Level Minneapolis Center
07:10PM 46.7075 -88.9219 93° East 524 603 43,000  Level Minneapolis Center
07:12PM 46.6961 -88.6708 94° East 516 594 43,000  Level Minneapolis Center
07:13PM 46.6861 -88.4600 94° East 519 597 43,000  Level Minneapolis Center
07:14PM 46.6750 -88.2508 94° East 518 596 43,000  Level Minneapolis Center
07:15PM 46.6653 -88.0414 94° East 518 596 43,000  Level Minneapolis Center
07:16PM 46.6533 -87.8339 95° East 516 594 43,000  Level Minneapolis Center
07:17PM 46.6406 -87.5972 94° East 515 593 43,000  Level Minneapolis Center
07:18PM 46.6267 -87.3489 95° East 513 590 43,000  Level Minneapolis Center
07:19PM 46.6150 -87.1389 95° East 518 596 43,000  Level Minneapolis Center
07:20PM 46.6019 -86.9325 95° East 516 594 43,000  Level Minneapolis Center
07:21PM 46.5867 -86.6825 95° East 517 595 43,000  Level Minneapolis Center
07:22PM 46.5742 -86.4744 95° East 517 595 43,000  Level Minneapolis Center
07:23PM 46.5597 -86.2681 96° East 515 593 43,000  Level Minneapolis Center
07:24PM 46.5458 -86.0606 95° East 515 593 43,000  Level Minneapolis Center
07:25PM 46.5319 -85.8564 96° East 512 589 43,000  Level Minneapolis Center
07:26PM 46.5167 -85.6508 96° East 512 589 43,000  Level Minneapolis Center
07:27PM 46.5017 -85.4461 96° East 511 588 43,000  Level Minneapolis Center
07:28PM 46.4831 -85.2172 97° East 511 588 43,000  Level Minneapolis Center
07:30PM 46.4500 -84.9333 99° East 510 587 43,000  Level Toronto Center
07:31PM 46.4333 -84.7167 96° East 520 598 43,000  Level Toronto Center
07:32PM 46.4167 -84.5000 96° East 510 587 43,000  Level Toronto Center
07:33PM 46.4000 -84.3000 97° East 530 610 43,000  Level Toronto Center
07:34PM 46.4000 -84.0833 90° East 510 587 43,000  Level Toronto Center
07:35PM 46.4000 -83.8833 90° East 510 587 43,000  Level Toronto Center
07:36PM 46.4167 -83.7000 82° East 510 587 43,000  Level Toronto Center
07:37PM 46.4000 -83.4833 96° East 510 587 43,000  Level Toronto Center
07:38PM 46.4167 -83.2833 83° East 510 587 43,000  Level Toronto Center
07:39PM 46.4000 -83.0667 96° East 520 598 43,000  Level Toronto Center
07:40PM 46.4000 -82.8500 90° East 520 598 43,000  Level Toronto Center
07:41PM 46.4167 -82.6333 84° East 520 598 43,000  Level Toronto Center
07:42PM 46.4000 -82.4333 97° East 520 598 43,000  Level Toronto Center
07:43PM 46.4000 -82.2167 90° East 520 598 43,000  Level Toronto Center
07:44PM 46.4000 -82.0333 90° East 520 598 43,000  Level Toronto Center
07:45PM 46.4000 -81.8000 90° East 520 598 43,000  Level Toronto Center
07:46PM 46.4000 -81.5833 90° East 520 598 43,000  Level Toronto Center
07:47PM 46.4000 -81.4000 90° East 520 598 43,000  Level Toronto Center
07:48PM 46.3833 -81.1833 96° East 520 598 43,000  Level Toronto Center
07:49PM 46.3500 -80.9833 104° East 520 598 43,000  Level Toronto Center
07:50PM 46.2833 -80.8167 120° Southeast 520 598 43,000  Level Toronto Center
07:51PM 46.2000 -80.6500 126° Southeast 520 598 43,000  Level Toronto Center
07:52PM 46.1167 -80.4500 121° Southeast 520 598 43,000  Level Toronto Center
07:53PM 46.0500 -80.2833 120° Southeast 530 610 43,000  Level Toronto Center
07:54PM 45.9667 -80.1167 126° Southeast 530 610 43,000  Level Toronto Center
07:55PM 45.8833 -79.9167 121° Southeast 540 621 43,000  Level Toronto Center
07:56PM 45.8000 -79.7500 126° Southeast 540 621 43,000  Level Toronto Center
07:57PM 45.7167 -79.5667 123° Southeast 540 621 43,000  Level Toronto Center
07:58PM 45.6333 -79.4000 126° Southeast 540 621 43,000  Level Toronto Center
08:00PM 45.4667 -79.0333 123° Southeast 540 621 43,000  Level Toronto Center
08:01PM 45.3833 -78.8500 123° Southeast 540 621 43,000  Level Toronto Center
08:02PM 45.3000 -78.6833 125° Southeast 530 610 43,000  Level Toronto Center
08:03PM 45.2167 -78.5167 125° Southeast 530 610 43,000  Level Toronto Center
08:04PM 45.1167 -78.3333 128° Southeast 530 610 43,000  Level Toronto Center
08:05PM 45.0333 -78.1667 125° Southeast 530 610 43,000  Level Toronto Center
08:06PM 44.9667 -77.9833 117° Southeast 530 610 43,000  Level Toronto Center
08:07PM 44.8833 -77.8167 125° Southeast 540 621 43,000  Level Toronto Center
08:08PM 44.8000 -77.6667 128° Southeast 540 621 43,000  Level Toronto Center
08:09PM 44.7167 -77.4667 120° Southeast 540 621 43,000  Level Toronto Center
08:10PM 44.6167 -77.3167 133° Southeast 540 621 43,000  Level Toronto Center
08:11PM 44.5333 -77.1333 122° Southeast 540 621 43,000 -360 Level Toronto Center
08:12PM 44.4500 -76.9667 125° Southeast 530 610 42,300 -1,440 Descending Toronto Center
08:13PM 44.3667 -76.7833 122° Southeast 520 598 40,200 -2,100 Descending Toronto Center
08:14PM 44.2667 -76.6500 136° Southeast 520 598 38,100 -2,220 Descending Toronto Center
08:15PM 44.2000 -76.4667 117° Southeast 510 587 35,800 -2,280 Descending Toronto Center
08:16PM 44.1167 -76.3167 128° Southeast 510 587 33,600 -2,340 Descending Toronto Center
08:17PM 44.0167 -76.1833 136° Southeast 530 610 31,200 -2,640 Descending Toronto Center
08:18PM 43.8667 -76.0667 151° Southeast 550 633 28,400 -2,100 Descending Toronto Center
08:19PM 43.7333 -75.9833 156° South 540 621 27,000 -660 Descending Toronto Center
08:20PM 43.6214 -75.9050 153° Southeast 514 592 27,000 -600 Level Boston Center
08:22PM 43.3833 -75.6833 146° Southeast 510 587 25,200 -1,380 Descending Toronto Center
08:23PM 43.2500 -75.6000 156° South 480 552 23,200 -2,100 Descending Toronto Center
08:24PM 43.1333 -75.5167 152° Southeast 470 541 21,100 -2,040 Descending Toronto Center
08:25PM 43.0333 -75.4333 149° Southeast 480 552 19,200 -1,560 Descending Toronto Center
08:26PM 42.9167 -75.3500 152° Southeast 470 541 18,000 -600 Descending Toronto Center
08:27PM 42.8167 -75.2667 149° Southeast 440 506 18,000 -300 Level Toronto Center
08:28PM 42.7167 -75.1833 149° Southeast 450 518 17,400 -480 Descending Toronto Center
08:29PM 42.5753 -75.1186 161° South 450 518 16,900 -240 Descending Boston Center
08:30PM 42.4644 -75.0408 153° Southeast 450 518 16,900  Level Boston Center
08:31PM 42.3578 -74.9603 151° Southeast 444 511 16,900  Level Boston Center
08:32PM 42.2492 -74.8831 152° Southeast 444 511 16,900  Level Boston Center
08:33PM 42.1381 -74.8117 155° Southeast 444 511 16,900 -480 Level Boston Center
08:34PM 42.0075 -74.7703 167° South 438 504 16,000 -1,500 Descending Boston Center
08:35PM 41.9144 -74.7417 167° South 411 473 13,900 -2,100 Descending Boston Center
08:36PM 41.8128 -74.7131 168° South 361 415 11,800 -1,860 Descending Boston Center
08:38PM 41.6469 -74.6625 167° South 304 350 8,400 -1,680 Descending Boston Center
08:39PM 41.5786 -74.6408 167° South 290 334 6,900 -1,200 Descending Boston Center
08:40PM 41.5000 -74.6186 168° South 275 316 6,000 -360 Descending Boston Center
08:42PM 41.3667 -74.6167 179° South 268 308 6,000  Level New York TRACON
08:43PM 41.3000 -74.6167 180° South 272 313 6,000 -840 Level New York TRACON
08:44PM 41.2333 -74.5667 151° Southeast 277 319 4,500 -1,020 Descending New York TRACON
08:45PM 41.1667 -74.5167 151° Southeast 277 319 4,000 -600 Descending New York TRACON
08:46PM 41.1000 -74.4667 151° Southeast 269 310 3,300 -540 Descending New York TRACON
08:47PM 41.0333 -74.4333 159° South 252 290 3,000 -240 Descending New York TRACON
08:48PM 40.9667 -74.3833 150° Southeast 221 254 2,900 -480 Descending New York TRACON
08:49PM 40.9167 -74.3500 153° Southeast 209 241 2,000 -600 Descending New York TRACON
08:50PM 40.8667 -74.3500 180° South 181 208 1,800 -540 Descending New York TRACON
08:51PM 40.8333 -74.3833 217° Southwest 138 159 1,000 -840 Descending New York TRACON
08:53PM 40.7993 -74.4149 185° South  Level Estimated